Dominique Guillot

Chefscout - Toulouse FC
3 Apr 2027
Samstag
Verarbeitung

Persönlichkeit

Anpassungsfähigkeit (11) Ehrgeiz (1) Kontroverse (12) Loyalität (11) Druck (9) Professionalität (10) Fairness (10) Temperament (18)

Profil

Trainerstil Demokratisch
Lizenz Kontinentale A
Entschlossenheit 12
Menschenführung 14
Motivation 13
Disziplin 6
Arbeitszufriedenheit
50%
Ermüdung
0%
Rolle Chefscout
Gehalt 60.1K p/W
Vertrag 14.03.2028

Leistung

Verhalten Normal
Trainingseffektivität
31%
Spielerentwicklung
65%
Verletzungsprävention
55%
Taktische Umsetzung
65%

Letzte Ereignisse

Spieler begutachtet jetzt
Nahm an einer Scouting-Besprechung teil jetzt
Empfahl ein Transferziel jetzt
Empfahl ein Transferziel jetzt
Empfahl ein Transferziel jetzt
Spieler begutachtet jetzt
Spieler begutachtet 7T her
Spieler begutachtet 7T her

Aktuell beobachtet

142
Spieler Verein Status Fähigkeit Vertrauen Beobachtet Zuletzt beobachtet Letzte Stimme
Bill Antonio KV Mechelen Aktiv 118 / 112 40% 9 02.04.2027 -
Matisse Samoise KAA Gent Aktiv 127 / 121 40% 4 02.04.2027 -
Brian Figueroa Morelia Aktiv 105 / 117 40% 2 02.04.2027 -
Tiago Araújo KAA Gent Aktiv 126 / 118 40% 6 01.04.2027 -
Manu Pozo Torreense Aktiv 120 / 121 40% 5 01.04.2027 -
Kyreece Lisbie Colchester United Aktiv 111 / 116 40% 2 01.04.2027 -
Juan Bezerra Zamalek Aktiv 123 / 128 40% 4 31.03.2027 -
Xavier Amaechi Plymouth Argyle Aktiv 107 / 114 40% 1 31.03.2027 -
Brenner Santa Clara Aktiv 117 / 113 40% 1 31.03.2027 -
Relebohile Mofokeng Orlando Pirates Aktiv 127 / 136 40% 8 29.03.2027 -
Dries Fellaini KV Oostende Aktiv 122 / 129 40% 7 29.03.2027 -
Aimé Omgba KAA Gent Aktiv 122 / 118 40% 4 29.03.2027 -
Nacer Tielemans Mouscron Aktiv 128 / 129 40% 5 26.03.2027 -
Ibrahim Karamoko Standard Liege Aktiv 128 / 124 40% 2 26.03.2027 -
Thomas Claes Zulte Waregem Aktiv 123 / 120 40% 7 24.03.2027 -
Malick Mbaye Zulte Waregem Aktiv 111 / 113 40% 5 24.03.2027 -
Hugo Vetlesen Club Brugge Aktiv 134 / 134 40% 2 24.03.2027 -
Mardochée Nzita Charleroi Aktiv 114 / 113 40% 5 22.03.2027 -
Zakaria Ajoughlal Renaissance Aktiv 105 / 100 40% 2 22.03.2027 -
Abdelkahar Kadri KAA Gent Abgelehnt 123 / 120 40% 1 22.03.2027 Mehr Infos nötig
Jeppe Erenbjerg Racing Genk Aktiv 123 / 122 40% 2 20.03.2027 -
Daan Heymans Racing Genk Aktiv 130 / 121 40% 4 20.03.2027 -
Daniel Kyerewaa Reading Aktiv 117 / 115 40% 4 19.03.2027 -
Chris Lokesa Waasland-Beveren Aktiv 117 / 124 40% 7 18.03.2027 -
Yira Sor Racing Genk Aktiv 121 / 118 40% 4 18.03.2027 -
Maksim Kireev KV Mechelen Aktiv 119 / 118 40% 4 18.03.2027 -
Helinho Toluca Aktiv 128 / 132 40% 6 16.03.2027 -
Matteo Dams Club Brugge Aktiv 129 / 124 40% 4 12.03.2027 -
Freddie Potts Club Brugge Aktiv 137 / 133 40% 3 12.03.2027 -
Myron van Brederode KV Mechelen Aktiv 120 / 120 40% 6 11.03.2027 -
Franco Díaz KV Oostende Aktiv 119 / 127 40% 2 11.03.2027 -
Thomas Van Den Keybus Westerlo Aktiv 111 / 118 40% 2 11.03.2027 -
Mohammad Mehdi Mohebi Persepolis Aktiv 125 / 114 40% 4 09.03.2027 -
Haissem Hassan Bloemfontein Celtic Aktiv 140 / 140 40% 1 05.03.2027 -
Serginho Al Wasl Aktiv 130 / 128 40% 1 04.03.2027 -
Léandre Kuavita Waasland-Beveren Aktiv 123 / 122 40% 3 27.02.2027 -
Facundo Pellistri Panathinaikos Aktiv 140 / 135 40% 1 19.02.2027 -
Antoine Colassin Charleroi Aktiv 119 / 122 40% 3 18.02.2027 -
César Huerta Pumas UNAM Aktiv 133 / 124 40% 2 16.02.2027 -
Efraín Álvarez Guadalajara Aktiv 126 / 135 40% 8 15.02.2027 -
Zakaria El Ouahdi Racing Genk Aktiv 131 / 132 40% 3 15.02.2027 -
Marouan Azarkan Al Nasr Aktiv 130 / 128 40% 1 15.02.2027 -
Sylvester Jasper Standard Liege Aktiv 117 / 124 40% 4 14.02.2027 -
William Balikwisha OH Leuven Aktiv 119 / 115 40% 2 14.02.2027 -
Thibaud Verlinden OH Leuven Aktiv 132 / 118 40% 6 13.02.2027 -
Killian Sardella Anderlecht Aktiv 130 / 133 40% 1 13.02.2027 -
Brian Rodríguez Club America Aktiv 130 / 122 40% 3 10.02.2027 -
Diego Lainez Tigres Aktiv 123 / 122 40% 2 04.02.2027 -
Arsène Elogo US Creteil Aktiv 106 / 109 76% 1 11.01.2027 Befürworten
Gaël Nsombi US Creteil Verloren 102 / 101 76% 1 06.01.2027 -
Mao Hosoya Corinthians Abgelehnt 134 / 135 67% 1 01.01.2027 Ablehnen
Federico Pereira Toluca Verloren 135 / 135 68% 1 01.01.2027 Befürworten
Sampson Dweh Viktoria Plzen Verloren 133 / 134 66% 1 01.01.2027 Befürworten
Igoh Ogbu Racing Genk Aktiv 146 / 146 66% 1 01.01.2027 Befürworten
Marcel Ruiz Toluca Abgelehnt 140 / 141 66% 1 01.01.2027 Ablehnen
Nicolás Ibáñez Cruz Azul Aktiv 136 / 132 40% 7 31.12.2026 -
Ludovic Ajorque Stade Brestois Aktiv 132 / 144 40% 10 31.12.2026 -
Fashion Sakala Al-Fayha Aktiv 123 / 130 40% 5 31.12.2026 -
Hugo Cuypers Monterrey Aktiv 119 / 122 40% 5 30.12.2026 -
Thibault Barbier Tours Aktiv 127 / 117 40% 5 30.12.2026 -
Romeo Vermant Club Brugge Aktiv 128 / 129 40% 1 30.12.2026 -
Habib Diallo FC Metz Aktiv 124 / 121 40% 8 29.12.2026 -
Christian Kouamé Aris Thessaloniki Aktiv 135 / 122 40% 1 29.12.2026 -
Yann Karamoh FC Metz Aktiv 127 / 119 40% 2 28.12.2026 -
Jhojan Julio Queretaro Aktiv 117 / 127 40% 4 28.12.2026 -
Nardin Mulahusejnović Vojvodina Aktiv 117 / 129 40% 1 28.12.2026 -
Brayan Gil Baltika Aktiv 132 / 112 40% 1 26.12.2026 -
Grejohn Kyei KAA Gent Aktiv 120 / 124 40% 3 25.12.2026 -
Wesley Saïd RC Lens Aktiv 132 / 134 40% 2 25.12.2026 -
Soufiane Rahimi Al Ain Aktiv 145 / 136 40% 5 25.12.2026 -
Iqraam Rayners Mamelodi Sundowns Aktiv 132 / 121 40% 9 24.12.2026 -
Luca Orellano Monterrey Aktiv 130 / 126 40% 6 24.12.2026 -
Mousa Meunier KV Oostende Aktiv 127 / 132 40% 5 24.12.2026 -
Josh Windass Wrexham Aktiv 131 / 123 40% 1 23.12.2026 -
Aurélien Scheidler Charleroi Aktiv 118 / 121 40% 1 23.12.2026 -
Diber Cambindo Leon Aktiv 123 / 118 40% 5 22.12.2026 -
Moussa Dembélé Al-Ettifaq Aktiv 136 / 117 40% 8 21.12.2026 -
Ezequiel Bullaude Santos Laguna Aktiv 122 / 120 40% 1 21.12.2026 -
Florián Monzón Atlas Aktiv 120 / 133 40% 10 18.12.2026 -
Fiete Arp OB Aktiv 129 / 139 40% 2 17.12.2026 -
Tamerlan Musaev CSKA Moscow Aktiv 112 / 124 40% 2 17.12.2026 -
Ismael Díaz Leon Aktiv 129 / 127 40% 6 15.12.2026 -
Talisca Fenerbahce Aktiv 139 / 150 40% 8 15.12.2026 -
Doğucan Haspolat Westerlo Aktiv 122 / 114 40% 1 15.12.2026 -
Kyriani Sabbe Club Brugge Aktiv 123 / 118 40% 4 13.12.2026 -
Łukasz Łakomy OH Leuven Aktiv 124 / 121 40% 1 13.12.2026 -
Mehdi Ghayedi Al Nasr Aktiv 135 / 124 40% 1 11.12.2026 -
Thierry Ambrose KV Kortrijk Aktiv 124 / 125 40% 4 05.12.2026 -
Johannes Eggestein Austria Wien Aktiv 131 / 132 40% 2 03.12.2026 -
Marco Pineda VfB Stuttgart Aktiv 137 / 140 40% 1 03.12.2026 -
Nicolás Fernández Belgrano Aktiv 123 / 116 40% 1 03.12.2026 -
Assad Al Hamlawi Universitatea Craiova Aktiv 132 / 116 40% 4 29.11.2026 -
Denis Bouanga Los Angeles Football Club Aktiv 134 / 120 40% 5 26.11.2026 -
Héctor Hernández Gil Vicente Aktiv 129 / 115 40% 1 23.11.2026 -
Lucas Passerini Belgrano Aktiv 123 / 111 40% 5 22.11.2026 -
Leo Ceara Kashima Antlers Aktiv 133 / 135 40% 6 21.11.2026 -
Brian Gutiérrez Guadalajara Aktiv 120 / 144 40% 1 18.11.2026 -
Takuya Ogiwara Urawa Reds Aktiv 126 / 130 40% 1 14.11.2026 -
Tristan Degreef Anderlecht Aktiv 120 / 128 40% 1 14.11.2026 -
Alejandro Piedrahita Deportivo Pereira Aktiv 132 / 131 40% 4 11.11.2026 -
Haris Tabaković Red Bull Salzburg Aktiv 142 / 130 40% 1 10.11.2026 -
Oli McBurnie Hull City Aktiv 134 / 138 40% 2 09.11.2026 -
Achraf Bencharki Al Ahly Aktiv 129 / 127 40% 1 09.11.2026 -
Ignacio Russo Tigre Aktiv 128 / 137 40% 2 08.11.2026 -
Edwuin Cetré Estudiantes Aktiv 134 / 114 40% 2 05.11.2026 -
Álex Arce Independiente Rivadavia Aktiv 122 / 131 40% 2 03.11.2026 -
Diego Rossi Monterrey Aktiv 131 / 143 40% 3 02.11.2026 -
Alex Luna Instituto Aktiv 132 / 122 40% 1 02.11.2026 -
Ignacio Ramírez Newell's Old Boys Aktiv 115 / 116 40% 3 28.10.2026 -
Ángel Correa River Plate Aktiv 145 / 141 40% 1 28.10.2026 -
Dániel Gazdag Columbus Crew Aktiv 121 / 135 40% 6 25.10.2026 -
Yuma Suzuki Kashima Antlers Aktiv 139 / 124 40% 2 25.10.2026 -
Jefry Zapata Once Caldas Aktiv 114 / 113 40% 1 23.10.2026 -
Antony Alonso Deportivo Riestra Aktiv 113 / 108 40% 4 20.10.2026 -
Josh Sargent Toronto FC Aktiv 131 / 130 40% 1 19.10.2026 -
Tomás Molina Argentinos Juniors Aktiv 129 / 119 40% 2 17.10.2026 -
Manfred Ugalde Spartak Moscow Aktiv 135 / 123 40% 1 17.10.2026 -
Ozziel Herrera Tigres Aktiv 134 / 130 40% 3 14.10.2026 -
Timo Werner San Jose Earthquakes Aktiv 125 / 116 40% 1 13.10.2026 -
Sebastián Villa Boca Juniors Aktiv 127 / 118 40% 1 07.10.2026 -
Ilias Sebaoui Sint-Truiden Aktiv 125 / 131 40% 1 07.10.2026 -
Enric Llansana Anderlecht Aktiv 126 / 124 40% 1 07.10.2026 -
Henok Teklab OH Leuven Aktiv 116 / 114 40% 1 06.10.2026 -
Guilherme Houston Dynamo Aktiv 127 / 114 40% 1 03.10.2026 -
Rodrigo Aguirre Tigres Aktiv 113 / 121 40% 1 29.09.2026 -
João Klauss LA Galaxy Aktiv 120 / 125 40% 1 24.09.2026 -
Danylo Sikan Anderlecht Aktiv 123 / 121 40% 3 18.09.2026 -
Tomás Chancalay Minnesota United FC Aktiv 118 / 126 40% 1 18.09.2026 -
Enzo Copetti Rosario Central Aktiv 128 / 112 40% 1 17.09.2026 -
Maximiliano Gómez Nacional Aktiv 115 / 125 40% 1 17.09.2026 -
Matías Giménez Rojas Argentinos Juniors Aktiv 117 / 120 40% 1 17.09.2026 -
Lucas Ocampos West Ham United Aktiv 156 / 149 40% 1 08.09.2026 -
Cesar Corona Veracruz Aktiv 142 / 142 40% 1 31.08.2026 -
Hamidou Makalou Stade Brestois Aktiv 102 / 128 76% 1 17.08.2026 Befürworten
Bruno Barticciotto Talleres Aktiv 121 / 128 40% 1 06.08.2026 -
Alan Velasco Boca Juniors Aktiv 118 / 141 40% 1 06.08.2026 -
Alexis Vega Toluca Aktiv 142 / 152 40% 1 06.08.2026 -
Liel Abada Charlotte Football Club Aktiv 138 / 139 40% 1 05.08.2026 -
Jason Januzaj Mouscron Aktiv 142 / 148 40% 1 05.08.2026 -
Kévin Denkey FC Cincinnati Aktiv 116 / 125 40% 1 05.08.2026 -
Wessam Abou Ali Columbus Crew Aktiv 120 / 135 40% 1 03.08.2026 -
Luis Vázquez Birmingham Aktiv 126 / 125 40% 1 03.08.2026 -